Time;durP1;ratioP1;P1;durP2;ratioP2;P2;SDS_P1;SDS_P2;PMS_P1;PMS_P2;Temp;Humidity;BMP_temperature;BMP_pressure;BME280_temperature;BME280_humidity;BME280_pressure;Samples;Min_cycle;Max_cycle;Signal;HPM_P1;HPM_P2
2021/09/15 00:02:59;;;;;;;14.13;10.07;;;;;;;18.52;66.66;99577.09;10392594;28;20524;-66
2021/09/15 00:08:01;;;;;;;17.50;10.38;;;;;;;18.43;66.86;99570.03;10391572;28;20308;-65
2021/09/15 00:13:03;;;;;;;15.85;11.32;;;;;;;18.33;66.62;99562.19;10393777;28;20057;-65
2021/09/15 00:18:04;;;;;;;15.00;11.25;;;;;;;18.12;67.26;99544.84;10392566;28;20564;-65
2021/09/15 00:23:06;;;;;;;12.50;7.50;;;;;;;18.03;67.32;99551.06;10392834;28;20064;-66
2021/09/15 00:28:08;;;;;;;24.67;9.23;;;;;;;18.05;67.26;99557.03;10392938;28;20073;-65
2021/09/15 00:33:09;;;;;;;32.80;9.95;;;;;;;18.09;67.30;99551.28;10392725;28;20141;-65
2021/09/15 00:38:11;;;;;;;17.30;12.10;;;;;;;18.01;67.58;99550.38;10392856;28;20049;-65
2021/09/15 00:43:13;;;;;;;14.07;10.30;;;;;;;17.97;67.16;99539.25;10393017;28;20055;-65
2021/09/15 00:48:15;;;;;;;14.75;11.45;;;;;;;17.92;67.62;99511.53;10392301;28;20050;-65
2021/09/15 00:53:16;;;;;;;13.73;11.32;;;;;;;17.92;67.59;99515.03;10392510;28;20702;-65
2021/09/15 00:58:18;;;;;;;13.60;9.27;;;;;;;17.94;67.31;99512.22;10390874;28;20057;-65
2021/09/15 01:03:20;;;;;;;14.07;10.88;;;;;;;17.93;67.32;99516.72;10392153;28;20822;-66
2021/09/15 01:08:24;;;;;;;18.13;12.07;;;;;;;17.94;67.61;99522.81;10390326;28;20137;-65
2021/09/15 01:13:26;;;;;;;26.13;10.70;;;;;;;17.93;67.21;99516.72;10394138;28;20527;-65
2021/09/15 01:18:28;;;;;;;14.32;10.85;;;;;;;17.81;67.16;99512.59;10399422;28;20103;-66
2021/09/15 01:23:30;;;;;;;20.48;16.05;;;;;;;17.68;67.73;99506.81;10399335;28;20482;-65
2021/09/15 01:28:31;;;;;;;13.23;11.35;;;;;;;17.64;67.80;99506.28;10399734;28;20584;-65
2021/09/15 01:33:33;;;;;;;37.05;9.85;;;;;;;17.66;67.69;99503.47;10398605;28;20065;-65
2021/09/15 01:38:35;;;;;;;21.45;9.63;;;;;;;17.72;67.35;99505.53;10398501;28;20413;-66
2021/09/15 01:43:36;;;;;;;16.83;8.75;;;;;;;17.74;67.27;99509.72;10398419;28;20057;-66
2021/09/15 01:48:38;;;;;;;59.08;14.35;;;;;;;17.68;67.52;99504.16;10398200;28;20050;-65
2021/09/15 01:53:40;;;;;;;237.38;27.48;;;;;;;17.50;67.48;99498.00;10398178;28;20323;-65
2021/09/15 01:58:42;;;;;;;19.10;14.07;;;;;;;17.35;68.05;99495.00;10397914;28;20494;-65
2021/09/15 02:03:43;;;;;;;18.50;11.07;;;;;;;17.39;68.02;99493.72;10397957;28;20153;-65
2021/09/15 02:08:45;;;;;;;16.42;11.13;;;;;;;17.50;67.98;99496.19;10438332;28;20580;-66
2021/09/15 02:13:46;;;;;;;16.00;11.88;;;;;;;17.68;67.69;99491.78;10438367;28;20132;-66
2021/09/15 02:18:48;;;;;;;24.63;10.75;;;;;;;17.73;67.48;99478.94;10438550;28;20240;-66
2021/09/15 02:23:50;;;;;;;31.50;14.95;;;;;;;17.65;67.16;99475.34;10437390;28;20307;-65
2021/09/15 02:28:52;;;;;;;26.73;12.43;;;;;;;17.52;67.85;99475.72;10396926;28;20051;-65
2021/09/15 02:33:54;;;;;;;17.23;11.25;;;;;;;17.62;67.43;99471.22;10395299;28;20065;-65
2021/09/15 02:38:55;;;;;;;18.40;11.48;;;;;;;17.70;67.04;99467.81;10396903;28;20049;-65
2021/09/15 02:43:57;;;;;;;17.13;11.27;;;;;;;17.63;67.19;99454.34;10395741;28;20436;-65
2021/09/15 02:49:00;;;;;;;22.55;8.93;;;;;;;17.60;67.26;99465.25;10396057;28;20475;-65
2021/09/15 02:54:01;;;;;;;12.02;7.93;;;;;;;17.69;67.14;99463.50;10395678;28;20531;-65
2021/09/15 02:59:03;;;;;;;11.75;10.57;;;;;;;17.61;67.06;99468.69;10396211;28;20068;-65
2021/09/15 03:04:04;;;;;;;13.38;10.45;;;;;;;17.64;66.97;99463.13;10395963;28;20054;-65
2021/09/15 03:09:06;;;;;;;25.15;9.93;;;;;;;17.64;66.93;99465.78;10395203;28;20064;-65
2021/09/15 03:14:08;;;;;;;18.45;12.57;;;;;;;17.61;66.91;99463.41;10393844;28;20069;-65
2021/09/15 03:19:10;;;;;;;14.73;9.60;;;;;;;17.51;67.03;99467.91;10395240;28;20057;-65
2021/09/15 03:24:12;;;;;;;74.85;14.57;;;;;;;17.41;67.11;99470.63;10393148;28;20144;-65
2021/09/15 03:29:14;;;;;;;15.35;11.00;;;;;;;17.33;67.83;99467.88;10394913;28;20057;-65
2021/09/15 03:34:15;;;;;;;22.92;12.85;;;;;;;17.42;67.92;99460.88;10393045;28;20067;-65
2021/09/15 03:39:17;;;;;;;18.75;10.45;;;;;;;17.52;67.50;99456.38;10393921;28;20132;-65
2021/09/15 03:44:19;;;;;;;24.25;10.05;;;;;;;17.59;67.24;99457.44;10393995;28;20140;-65
2021/09/15 03:49:21;;;;;;;16.67;10.55;;;;;;;17.66;67.14;99445.31;10393901;28;20062;-65
2021/09/15 03:54:23;;;;;;;21.95;11.18;;;;;;;17.75;67.02;99437.31;10393931;28;20327;-65
2021/09/15 03:59:24;;;;;;;15.07;10.30;;;;;;;17.75;67.04;99432.00;10393349;28;20148;-65
2021/09/15 04:04:26;;;;;;;18.48;10.20;;;;;;;17.73;67.19;99444.56;10393460;28;20232;-65
2021/09/15 04:09:28;;;;;;;13.27;10.82;;;;;;;17.76;66.52;99449.56;10393660;28;20099;-65
2021/09/15 04:14:29;;;;;;;18.38;11.88;;;;;;;17.72;66.90;99445.56;10391811;28;20061;-65
2021/09/15 04:19:32;;;;;;;16.33;12.50;;;;;;;17.69;66.75;99445.84;10393012;28;20410;-65
2021/09/15 04:35:14;;;;;;;23.05;12.07;;;;;;;17.67;66.98;99450.44;10392697;28;20053;-65
2021/09/15 04:40:16;;;;;;;15.68;9.60;;;;;;;17.71;66.97;99441.22;10392356;28;20050;-65
2021/09/15 04:45:18;;;;;;;16.05;11.40;;;;;;;17.70;66.80;99452.81;10392328;28;20452;-65
2021/09/15 04:50:20;;;;;;;14.23;10.60;;;;;;;17.68;67.06;99443.34;10399841;28;20056;-65
2021/09/15 04:55:22;;;;;;;14.30;10.55;;;;;;;17.72;66.98;99440.25;10400265;28;20059;-65
2021/09/15 05:00:24;;;;;;;17.10;11.93;;;;;;;17.75;67.04;99439.94;10428149;28;20061;-65
2021/09/15 05:05:26;;;;;;;25.33;14.52;;;;;;;17.75;67.08;99420.63;10441164;28;20148;-65
2021/09/15 05:10:28;;;;;;;18.45;11.10;;;;;;;17.76;66.97;99425.75;10439351;28;20131;-65
2021/09/15 05:15:30;;;;;;;13.00;9.68;;;;;;;17.67;67.06;99421.34;10440932;28;20059;-65
2021/09/15 05:20:31;;;;;;;15.30;11.65;;;;;;;17.48;67.48;99396.84;10440782;28;20056;-66
2021/09/15 05:25:33;;;;;;;16.88;13.93;;;;;;;17.27;68.75;99405.00;10440173;28;20053;-66
2021/09/15 05:30:35;;;;;;;15.02;10.32;;;;;;;17.40;68.43;99410.81;10423572;28;20045;-65
2021/09/15 05:35:36;;;;;;;29.63;10.48;;;;;;;17.56;68.00;99411.00;10399190;28;20095;-65
2021/09/15 05:40:38;;;;;;;22.83;13.35;;;;;;;17.66;68.05;99427.63;10398843;28;20056;-66
2021/09/15 05:45:40;;;;;;;15.32;12.68;;;;;;;17.74;67.84;99442.75;10398282;28;20057;-65
2021/09/15 05:50:42;;;;;;;17.83;13.63;;;;;;;17.78;67.96;99479.34;10398556;28;20061;-64
2021/09/15 05:55:44;;;;;;;24.77;17.17;;;;;;;17.57;68.42;99480.56;10398336;28;20057;-65
2021/09/15 06:00:46;;;;;;;46.72;24.63;;;;;;;17.31;69.97;99493.59;10397039;28;20523;-64
2021/09/15 06:05:49;;;;;;;42.15;28.17;;;;;;;17.36;70.17;99474.69;10397890;28;20061;-64
2021/09/15 06:10:50;;;;;;;34.83;24.23;;;;;;;17.52;69.83;99467.78;10397697;28;20617;-64
2021/09/15 06:15:53;;;;;;;33.80;24.65;;;;;;;17.61;69.74;99461.59;10397640;28;20152;-64
2021/09/15 06:20:55;;;;;;;43.72;26.58;;;;;;;17.54;70.13;99460.53;10397203;28;20060;-64
2021/09/15 06:25:58;;;;;;;31.00;18.08;;;;;;;17.68;70.25;99468.00;10397102;28;20053;-64
2021/09/15 06:31:01;;;;;;;39.17;24.73;;;;;;;17.82;70.01;99464.84;10397077;28;20063;-64
2021/09/15 06:36:03;;;;;;;41.25;25.45;;;;;;;17.95;69.62;99463.66;10396533;28;20056;-64
2021/09/15 06:41:05;;;;;;;23.90;16.33;;;;;;;18.00;69.10;99456.06;10396435;28;20056;-64
2021/09/15 06:46:07;;;;;;;25.48;18.70;;;;;;;18.11;68.96;99467.28;10394789;28;20081;-64
2021/09/15 06:51:09;;;;;;;17.42;14.57;;;;;;;18.07;68.83;99457.16;10396344;28;20088;-64
2021/09/15 06:56:10;;;;;;;34.35;23.13;;;;;;;18.17;68.96;99469.34;10395660;28;20054;-64
2021/09/15 07:01:12;;;;;;;23.88;20.48;;;;;;;18.12;69.19;99465.44;10395973;28;20077;-64
2021/09/15 07:06:14;;;;;;;32.05;20.77;;;;;;;18.21;69.39;99462.78;10395528;28;20071;-65
2021/09/15 07:11:16;;;;;;;51.03;30.95;;;;;;;18.14;69.27;99460.84;10394963;28;20561;-64
2021/09/15 07:16:18;;;;;;;36.88;25.85;;;;;;;18.26;69.61;99473.72;10395227;28;20063;-64
2021/09/15 07:21:19;;;;;;;37.75;24.27;;;;;;;18.25;69.67;99482.69;10395080;28;20145;-64
2021/09/15 07:26:21;;;;;;;39.83;27.05;;;;;;;18.27;69.77;99477.22;10395445;28;20060;-64
2021/09/15 07:31:23;;;;;;;49.53;28.55;;;;;;;18.46;69.22;99482.38;10394537;28;20084;-64
2021/09/15 07:36:24;;;;;;;32.50;23.70;;;;;;;18.70;69.11;99482.56;10394431;28;20061;-65
2021/09/15 07:41:26;;;;;;;31.05;22.63;;;;;;;18.92;68.55;99470.63;10394199;28;20079;-65
2021/09/15 07:46:28;;;;;;;38.15;25.48;;;;;;;18.99;68.52;99488.38;10393743;28;20071;-64
2021/09/15 07:51:29;;;;;;;44.25;27.52;;;;;;;18.96;68.06;99485.22;10394123;28;20314;-64
2021/09/15 07:56:31;;;;;;;30.27;21.13;;;;;;;19.06;67.92;99488.63;10393643;28;20421;-64
2021/09/15 08:01:33;;;;;;;33.78;22.88;;;;;;;19.21;67.85;99490.56;10393101;28;20057;-64
2021/09/15 08:06:35;;;;;;;23.20;18.05;;;;;;;19.42;67.40;99487.50;10393090;28;20152;-64
2021/09/15 08:11:50;;;;;;;28.60;21.73;;;;;;;19.64;67.08;99494.09;10393178;28;20053;-64
2021/09/15 08:16:53;;;;;;;24.55;18.20;;;;;;;19.96;66.08;99492.41;10392601;28;20064;-64
2021/09/15 08:21:55;;;;;;;23.65;18.27;;;;;;;20.17;65.60;99495.44;10393018;28;20056;-64
2021/09/15 08:26:56;;;;;;;27.13;17.85;;;;;;;20.57;65.00;99484.03;10392755;28;20455;-64
2021/09/15 08:31:58;;;;;;;20.95;16.35;;;;;;;21.04;63.96;99481.53;10392737;28;20057;-64
2021/09/15 08:37:00;;;;;;;19.88;17.30;;;;;;;21.18;64.12;99482.66;10392523;28;20144;-64
2021/09/15 08:42:02;;;;;;;23.48;17.50;;;;;;;21.28;63.79;99484.16;10392649;28;20058;-64
2021/09/15 08:47:05;;;;;;;20.00;16.15;;;;;;;21.42;63.50;99469.31;10392884;28;20053;-64
2021/09/15 08:52:06;;;;;;;18.05;14.82;;;;;;;21.65;62.96;99467.56;10392362;28;20409;-64
2021/09/15 08:57:08;;;;;;;15.40;12.95;;;;;;;21.67;63.04;99468.25;10392796;28;20165;-65
2021/09/15 09:02:12;;;;;;;25.95;18.05;;;;;;;21.88;63.19;99471.13;10392006;28;20091;-64
2021/09/15 09:07:13;;;;;;;24.40;16.55;;;;;;;21.96;63.44;99472.91;10391952;28;20057;-64
2021/09/15 09:12:16;;;;;;;23.70;15.82;;;;;;;21.93;62.90;99468.75;10392222;28;20297;-64
2021/09/15 09:17:29;;;;;;;25.45;18.70;;;;;;;21.68;63.84;99461.94;10391635;28;20405;-65
2021/09/15 09:22:31;;;;;;;18.25;14.40;;;;;;;21.44;64.25;99465.50;10391770;28;20140;-65
2021/09/15 09:27:35;;;;;;;19.83;14.30;;;;;;;21.29;65.30;99458.38;10391931;28;20910;-65
2021/09/15 09:32:42;;;;;;;22.90;16.15;;;;;;;21.33;65.12;99462.38;10391795;28;20081;-65
2021/09/15 09:37:44;;;;;;;20.23;14.75;;;;;;;21.57;65.10;99467.63;10398690;28;20081;-65
2021/09/15 09:42:46;;;;;;;20.52;14.52;;;;;;;21.81;63.86;99457.69;10398954;28;20045;-65
2021/09/15 09:47:48;;;;;;;22.92;14.27;;;;;;;22.22;63.66;99458.31;10398818;28;20144;-65
2021/09/15 09:53:00;;;;;;;21.65;13.30;;;;;;;22.33;63.09;99457.06;10398260;28;20049;-65
2021/09/15 09:58:05;;;;;;;16.33;13.38;;;;;;;22.72;62.77;99456.91;10398148;28;20049;-65
2021/09/15 10:03:08;;;;;;;20.55;12.30;;;;;;;23.00;62.22;99450.00;10397846;28;20064;-65
2021/09/15 10:08:11;;;;;;;16.65;10.98;;;;;;;23.27;61.62;99439.50;10397444;28;20485;-65
2021/09/15 10:13:13;;;;;;;8.70;5.70;;;;;;;23.67;60.44;99434.72;10397242;28;20053;-65
2021/09/15 10:18:17;;;;;;;8.65;6.18;;;;;;;23.96;60.63;99437.34;10398056;28;20484;-65
2021/09/15 10:23:34;;;;;;;13.93;7.47;;;;;;;23.77;60.52;99435.25;10396195;28;20295;-65
2021/09/15 10:29:15;;;;;;;10.13;4.50;;;;;;;23.32;60.37;99436.28;10397339;28;20502;-65
2021/09/15 10:34:38;;;;;;;10.40;5.00;;;;;;;23.03;61.82;99441.63;10396437;28;20132;-65
2021/09/15 10:40:01;;;;;;;8.43;4.45;;;;;;;22.47;62.29;99443.78;10396518;28;20142;-65
2021/09/15 10:45:09;;;;;;;10.60;5.20;;;;;;;21.92;63.55;99443.97;10395180;28;20144;-64
2021/09/15 10:50:32;;;;;;;13.32;4.82;;;;;;;21.69;64.79;99435.13;10396428;28;20506;-64
2021/09/15 10:55:46;;;;;;;9.88;4.93;;;;;;;21.90;64.44;99440.66;10396027;28;20057;-64
2021/09/15 11:01:02;;;;;;;13.43;4.82;;;;;;;22.10;64.14;99430.41;10395683;28;20057;-64
2021/09/15 11:06:06;;;;;;;9.77;4.53;;;;;;;22.33;63.58;99428.56;10395354;28;20097;-64
2021/09/15 11:11:31;;;;;;;10.02;4.78;;;;;;;22.43;63.17;99423.00;10395533;28;20053;-64
2021/09/15 11:16:35;;;;;;;14.10;4.70;;;;;;;22.55;62.57;99422.41;10394777;28;20057;-64
2021/09/15 11:21:40;;;;;;;6.82;3.85;;;;;;;22.48;62.64;99424.13;10394689;28;20084;-64
2021/09/15 11:26:48;;;;;;;13.57;4.50;;;;;;;22.82;63.11;99414.84;10394437;28;20096;-64
2021/09/15 11:31:50;;;;;;;12.77;4.70;;;;;;;22.99;62.02;99409.16;10394551;28;20148;-65
2021/09/15 11:36:51;;;;;;;9.25;3.33;;;;;;;23.42;61.72;99405.69;10392863;28;20387;-65
2021/09/15 11:42:01;;;;;;;12.75;4.28;;;;;;;23.76;61.13;99404.25;10394190;28;20053;-64
2021/09/15 11:47:02;;;;;;;;;;;;;;;23.19;60.51;99402.25;10394714;28;20095;-65
2021/09/15 11:52:04;;;;;;;6.55;3.80;;;;;;;23.34;61.20;99403.09;10394105;28;20305;-65
2021/09/15 11:57:09;;;;;;;7.90;3.60;;;;;;;23.43;60.49;99406.50;10393520;28;20302;-64
2021/09/15 12:02:14;;;;;;;9.13;3.50;;;;;;;23.53;60.37;99400.88;10393322;28;20548;-66
2021/09/15 12:07:17;;;;;;;6.85;3.50;;;;;;;23.63;60.38;99398.72;10392990;28;20061;-66
2021/09/15 12:12:19;;;;;;;10.00;3.70;;;;;;;23.81;59.45;99385.78;10393206;28;20452;-66
2021/09/15 12:17:20;;;;;;;8.75;4.07;;;;;;;23.79;59.79;99380.66;10393464;28;20420;-66
2021/09/15 12:22:29;;;;;;;8.10;3.97;;;;;;;24.16;59.51;99375.06;10392860;28;20136;-66
2021/09/15 12:27:32;;;;;;;5.72;3.53;;;;;;;24.18;58.83;99366.88;10393058;28;20057;-65
2021/09/15 12:32:37;;;;;;;8.38;3.67;;;;;;;24.35;59.16;99370.13;10392824;28;20049;-65
2021/09/15 12:37:40;;;;;;;9.30;3.78;;;;;;;23.86;59.59;99362.84;10392646;28;20223;-65
2021/09/15 12:42:41;;;;;;;9.48;3.80;;;;;;;23.42;60.74;99367.47;10392390;28;20056;-64
2021/09/15 12:47:47;;;;;;;7.68;3.90;;;;;;;23.27;60.85;99367.47;10392550;28;20092;-64
2021/09/15 12:52:57;;;;;;;11.77;3.80;;;;;;;23.08;61.24;99369.88;10391846;28;20089;-65
2021/09/15 12:58:03;;;;;;;6.82;3.88;;;;;;;23.05;61.80;99359.56;10392493;28;20057;-65
2021/09/15 13:03:07;;;;;;;6.47;3.60;;;;;;;23.61;60.53;99353.53;10392364;28;20148;-65
2021/09/15 13:08:26;;;;;;;10.68;4.28;;;;;;;23.81;61.03;99354.56;10393847;28;20057;-65
2021/09/15 13:13:29;;;;;;;8.00;3.58;;;;;;;24.15;59.81;99341.38;10399801;28;20101;-64
2021/09/15 13:18:31;;;;;;;6.60;3.55;;;;;;;24.34;58.73;99336.38;10400216;28;20779;-65
2021/09/15 13:23:33;;;;;;;6.70;3.63;;;;;;;24.29;59.21;99335.09;10399396;28;20058;-65
2021/09/15 13:28:37;;;;;;;7.32;4.25;;;;;;;24.21;60.02;99334.41;10399711;28;20049;-65
2021/09/15 13:33:39;;;;;;;12.05;3.53;;;;;;;24.24;59.82;99321.53;10399159;28;20060;-65
2021/09/15 13:38:41;;;;;;;12.43;3.40;;;;;;;24.26;59.00;99329.34;10398079;28;20145;-65
2021/09/15 13:43:42;;;;;;;8.73;3.08;;;;;;;24.18;59.16;99327.59;10398710;28;20053;-65
2021/09/15 13:48:44;;;;;;;7.13;3.05;;;;;;;23.98;59.51;99323.91;10398844;28;20049;-65
2021/09/15 13:53:45;;;;;;;7.93;3.30;;;;;;;23.82;59.51;99332.19;10411291;28;20463;-65
2021/09/15 13:58:47;;;;;;;6.93;3.08;;;;;;;23.56;59.34;99326.56;10439396;28;20053;-65
2021/09/15 14:03:50;;;;;;;8.77;3.00;;;;;;;23.73;58.66;99321.81;10438905;28;20100;-65
2021/09/15 14:08:52;;;;;;;6.45;3.00;;;;;;;23.88;58.41;99336.75;10438909;28;20045;-65
2021/09/15 14:13:54;;;;;;;5.85;2.75;;;;;;;23.79;58.50;99332.56;10438658;28;20049;-65
2021/09/15 14:18:56;;;;;;;7.68;3.22;;;;;;;23.63;58.95;99332.81;10436601;28;20065;-65
2021/09/15 14:23:58;;;;;;;9.57;3.40;;;;;;;23.65;58.77;99340.63;10437949;28;20527;-65
2021/09/15 14:29:00;;;;;;;7.95;3.00;;;;;;;23.66;58.88;99337.78;10434669;28;20049;-65
2021/09/15 14:34:02;;;;;;;6.72;3.10;;;;;;;23.62;58.51;99339.16;10396958;28;20046;-65
2021/09/15 14:39:04;;;;;;;7.18;3.05;;;;;;;23.56;59.06;99331.91;10396896;28;20558;-65
2021/09/15 14:44:06;;;;;;;9.30;2.90;;;;;;;23.63;58.73;99327.47;10396395;28;20049;-65
2021/09/15 14:49:08;;;;;;;16.70;3.78;;;;;;;23.69;59.91;99320.56;10396250;28;20104;-65
2021/09/15 14:54:09;;;;;;;10.55;3.53;;;;;;;23.92;59.20;99314.00;10394982;28;20137;-65
2021/09/15 14:59:11;;;;;;;11.05;3.88;;;;;;;24.06;58.58;99310.41;10395919;28;20042;-65
2021/09/15 15:04:13;;;;;;;9.75;5.80;;;;;;;23.99;58.66;99312.22;10395996;28;20156;-65
2021/09/15 15:09:14;;;;;;;13.65;5.68;;;;;;;23.94;58.69;99317.28;10395668;28;20061;-65
2021/09/15 15:14:16;;;;;;;8.07;3.90;;;;;;;24.07;58.86;99312.13;10393925;28;20061;-65
2021/09/15 15:19:18;;;;;;;10.07;3.95;;;;;;;24.02;58.66;99311.81;10395229;28;20135;-65
2021/09/15 15:24:20;;;;;;;10.68;4.88;;;;;;;24.03;58.57;99320.66;10394726;28;20063;-64
2021/09/15 15:29:22;;;;;;;9.30;3.30;;;;;;;24.22;58.72;99328.91;10395007;28;20133;-64
2021/09/15 15:34:24;;;;;;;9.98;3.58;;;;;;;24.36;57.73;99329.00;10393688;28;20060;-65
2021/09/15 15:39:26;;;;;;;7.28;3.03;;;;;;;24.23;57.34;99330.53;10393924;28;20060;-65
2021/09/15 15:44:28;;;;;;;9.30;2.95;;;;;;;24.18;57.40;99335.63;10392981;28;20068;-65
2021/09/15 15:49:29;;;;;;;8.90;3.00;;;;;;;24.11;57.57;99336.59;10393857;28;20140;-65
2021/09/15 15:54:31;;;;;;;7.72;3.03;;;;;;;23.82;58.10;99348.19;10394029;28;20049;-64
2021/09/15 15:59:33;;;;;;;13.85;3.35;;;;;;;23.54;58.98;99354.47;10393433;28;20053;-64
2021/09/15 16:04:35;;;;;;;10.43;3.53;;;;;;;23.31;60.24;99365.25;10393260;28;20136;-64
2021/09/15 16:09:37;;;;;;;10.05;3.80;;;;;;;23.05;60.11;99364.91;10393198;28;20251;-64
2021/09/15 16:14:39;;;;;;;17.08;3.75;;;;;;;22.90;60.66;99361.44;10393180;28;20071;-64
2021/09/15 16:19:40;;;;;;;8.52;3.00;;;;;;;22.61;61.29;99376.38;10391854;28;20049;-64
2021/09/15 16:24:42;;;;;;;9.73;3.03;;;;;;;22.22;61.41;99394.38;10393365;28;20064;-64
2021/09/15 16:29:45;;;;;;;14.80;2.00;;;;;;;21.42;61.00;99405.47;10392734;28;20516;-64
2021/09/15 16:34:47;;;;;;;5.55;1.77;;;;;;;20.95;61.30;99393.00;10392755;28;20501;-64
2021/09/15 16:39:53;;;;;;;4.72;1.80;;;;;;;20.67;62.50;99404.19;10392434;28;20129;-65
2021/09/15 16:44:55;;;;;;;8.18;1.70;;;;;;;20.40;63.63;99386.75;10396725;28;20413;-64
2021/09/15 16:49:57;;;;;;;9.05;1.98;;;;;;;20.34;64.20;99386.59;10400844;28;20057;-64
2021/09/15 16:54:59;;;;;;;7.05;1.98;;;;;;;20.31;64.70;99393.06;10400626;28;20678;-64
2021/09/15 17:00:02;;;;;;;12.20;2.40;;;;;;;20.36;65.77;99392.56;10400668;28;20141;-64
2021/09/15 17:05:04;;;;;;;6.82;1.95;;;;;;;20.35;65.31;99401.53;10400179;28;20072;-64
2021/09/15 17:10:10;;;;;;;9.68;2.35;;;;;;;20.32;65.54;99410.66;10400050;28;20393;-64
2021/09/15 17:15:12;;;;;;;6.05;1.83;;;;;;;20.27;65.69;99407.69;10399886;28;20048;-63
2021/09/15 17:20:18;;;;;;;4.03;1.85;;;;;;;20.19;66.01;99394.41;10400037;28;20424;-64
2021/09/15 17:25:20;;;;;;;5.38;2.20;;;;;;;20.02;66.31;99406.81;10399183;28;20058;-64
2021/09/15 17:30:21;;;;;;;7.13;1.90;;;;;;;19.94;66.70;99408.63;10397896;28;20522;-64
2021/09/15 17:35:23;;;;;;;8.02;2.95;;;;;;;19.89;67.01;99402.97;10399283;28;20132;-63
2021/09/15 17:40:25;;;;;;;7.20;3.03;;;;;;;19.88;66.90;99418.09;10398771;28;20057;-64
2021/09/15 17:45:27;;;;;;;15.82;5.13;;;;;;;19.84;67.45;99423.88;10398862;28;20079;-63
2021/09/15 17:50:28;;;;;;;7.25;2.97;;;;;;;19.79;67.28;99432.28;10398505;28;20169;-64
2021/09/15 17:55:30;;;;;;;5.18;2.58;;;;;;;19.76;67.87;99423.81;10397099;28;20494;-64
2021/09/15 18:00:33;;;;;;;11.15;2.53;;;;;;;19.63;68.25;99439.38;10398173;28;20148;-64
2021/09/15 18:05:35;;;;;;;11.05;2.63;;;;;;;19.60;68.46;99434.41;10397676;28;20111;-64
2021/09/15 18:10:36;;;;;;;8.27;2.65;;;;;;;19.59;68.51;99436.22;10397431;28;20466;-64
2021/09/15 18:15:38;;;;;;;10.00;2.90;;;;;;;19.57;68.28;99442.66;10397739;28;20085;-64
2021/09/15 18:20:40;;;;;;;7.70;2.80;;;;;;;19.62;68.26;99450.97;10397465;28;20132;-64
2021/09/15 18:25:41;;;;;;;7.88;2.42;;;;;;;19.57;68.85;99451.44;10397411;28;20066;-64
2021/09/15 18:30:43;;;;;;;18.13;4.07;;;;;;;19.52;69.06;99450.28;10396802;28;20075;-64
2021/09/15 18:35:45;;;;;;;8.45;2.85;;;;;;;19.43;69.11;99454.72;10397179;28;20057;-65
2021/09/15 18:40:47;;;;;;;11.57;2.70;;;;;;;19.43;69.40;99455.56;10396598;28;20063;-64
2021/09/15 18:45:49;;;;;;;6.78;2.90;;;;;;;19.44;69.33;99475.75;10396246;28;20429;-65
2021/09/15 18:50:54;;;;;;;10.07;2.67;;;;;;;19.45;69.17;99473.94;10396335;28;20053;-65
2021/09/15 18:55:55;;;;;;;11.00;3.40;;;;;;;19.34;69.38;99485.66;10396584;28;20144;-65
2021/09/15 19:00:57;;;;;;;9.93;2.75;;;;;;;19.29;69.55;99501.22;10396270;28;20144;-65
2021/09/15 19:05:59;;;;;;;18.27;4.18;;;;;;;19.36;69.24;99512.84;10395463;28;20119;-65
2021/09/15 19:11:01;;;;;;;10.73;3.00;;;;;;;19.35;69.49;99515.66;10395341;28;20140;-65
2021/09/15 19:16:05;;;;;;;6.85;3.10;;;;;;;19.34;69.29;99524.59;10395516;28;20064;-65
2021/09/15 19:21:08;;;;;;;11.05;3.03;;;;;;;19.42;69.18;99522.81;10395036;28;20068;-65
2021/09/15 19:26:09;;;;;;;18.85;8.50;;;;;;;19.37;68.66;99532.25;10394865;28;20064;-65
2021/09/15 19:31:17;;;;;;;20.77;14.55;;;;;;;19.35;68.16;99544.84;10393515;28;20116;-65
2021/09/15 19:36:19;;;;;;;21.55;15.75;;;;;;;19.19;68.07;99544.75;10394906;28;20056;-64
2021/09/15 19:41:21;;;;;;;30.17;21.90;;;;;;;19.21;67.45;99543.59;10394330;28;20057;-64
2021/09/15 19:46:23;;;;;;;40.10;27.40;;;;;;;19.21;67.85;99551.56;10393925;28;20520;-64
2021/09/15 19:51:24;;;;;;;29.80;23.75;;;;;;;19.11;67.59;99560.59;10394347;28;20049;-64
2021/09/15 19:56:26;;;;;;;41.25;30.08;;;;;;;19.05;67.74;99554.09;10394021;28;20057;-64
2021/09/15 20:01:28;;;;;;;43.60;31.48;;;;;;;19.13;67.62;99558.63;10393385;28;20132;-64
2021/09/15 20:06:30;;;;;;;37.60;27.27;;;;;;;19.06;66.97;99561.03;10397796;28;20068;-64
2021/09/15 20:11:32;;;;;;;38.42;28.80;;;;;;;19.04;66.85;99568.31;10434571;28;20057;-64
2021/09/15 20:16:33;;;;;;;32.53;23.77;;;;;;;19.02;66.38;99583.53;10432386;28;20166;-64
2021/09/15 20:21:35;;;;;;;32.03;22.63;;;;;;;18.95;65.79;99582.44;10434080;28;20164;-64
2021/09/15 20:26:37;;;;;;;37.08;20.90;;;;;;;18.80;65.25;99589.28;10433851;28;20064;-64
2021/09/15 20:31:39;;;;;;;28.83;19.45;;;;;;;18.75;64.99;99586.25;10407960;28;20057;-64
2021/09/15 20:36:41;;;;;;;34.28;21.83;;;;;;;18.81;65.32;99590.13;10392585;28;20049;-64
2021/09/15 20:41:44;;;;;;;27.67;21.45;;;;;;;18.79;65.30;99576.19;10391219;28;20061;-65
2021/09/15 20:46:46;;;;;;;33.92;23.63;;;;;;;18.63;65.48;99572.41;10392585;28;20148;-65
2021/09/15 20:51:48;;;;;;;36.58;23.55;;;;;;;18.74;65.35;99594.34;10392522;28;20140;-65
2021/09/15 20:56:53;;;;;;;36.30;26.42;;;;;;;18.73;65.99;99596.16;10392310;28;20057;-65
2021/09/15 21:01:55;;;;;;;36.72;25.02;;;;;;;18.73;65.68;99598.81;10391990;28;20059;-65
2021/09/15 21:06:57;;;;;;;41.30;26.67;;;;;;;18.71;65.50;99597.31;10392008;28;20432;-65
2021/09/15 21:11:58;;;;;;;44.88;29.95;;;;;;;18.63;66.47;99600.69;10392194;28;20057;-65
2021/09/15 21:17:00;;;;;;;42.85;31.02;;;;;;;18.50;66.80;99600.25;10392028;28;20053;-64
2021/09/15 21:22:02;;;;;;;40.28;30.05;;;;;;;18.61;66.72;99607.97;10392407;28;20053;-65
2021/09/15 21:27:05;;;;;;;39.10;27.48;;;;;;;18.66;66.15;99613.66;10390426;28;20420;-65
2021/09/15 21:32:06;;;;;;;46.92;28.65;;;;;;;18.63;66.37;99622.72;10398212;28;20130;-64
2021/09/15 21:37:08;;;;;;;43.10;28.02;;;;;;;18.74;65.95;99616.38;10397956;28;20057;-64
2021/09/15 21:42:10;;;;;;;41.17;27.70;;;;;;;18.58;66.38;99622.34;10398804;28;20077;-64
2021/09/15 21:47:12;;;;;;;40.95;26.00;;;;;;;18.59;66.04;99624.00;10398724;28;20410;-64
2021/09/15 21:52:13;;;;;;;42.38;26.35;;;;;;;18.71;65.80;99627.28;10397397;28;20073;-64
2021/09/15 21:57:15;;;;;;;39.00;26.70;;;;;;;18.75;65.69;99625.97;10398463;28;20060;-64
2021/09/15 22:02:17;;;;;;;42.17;28.38;;;;;;;18.69;66.09;99626.59;10397980;28;20220;-64
2021/09/15 22:07:19;;;;;;;46.47;29.52;;;;;;;18.72;66.49;99623.66;10397847;28;20140;-64
2021/09/15 22:12:20;;;;;;;48.08;29.25;;;;;;;18.68;66.73;99627.59;10397817;28;20054;-64
2021/09/15 22:17:22;;;;;;;43.83;28.23;;;;;;;18.67;66.63;99636.50;10397308;28;20049;-64
2021/09/15 22:22:24;;;;;;;52.67;34.03;;;;;;;18.64;66.97;99636.81;10397770;28;20092;-64
2021/09/15 22:27:26;;;;;;;47.83;30.83;;;;;;;18.60;66.60;99636.28;10435765;28;20140;-64
2021/09/15 22:32:27;;;;;;;37.60;28.10;;;;;;;18.53;66.46;99644.97;10403760;28;20061;-64
2021/09/15 22:37:29;;;;;;;51.58;28.20;;;;;;;18.57;66.59;99641.03;10396591;28;20099;-64
2021/09/15 22:42:31;;;;;;;39.88;27.10;;;;;;;18.51;66.51;99644.28;10395499;28;20060;-65
2021/09/15 22:47:34;;;;;;;48.25;28.70;;;;;;;18.59;66.64;99655.78;10396527;28;20053;-64
2021/09/15 22:52:37;;;;;;;47.05;27.65;;;;;;;18.60;66.38;99654.84;10396400;28;20049;-65
2021/09/15 22:57:39;;;;;;;42.67;29.30;;;;;;;18.58;66.08;99658.59;10395786;28;20428;-64
2021/09/15 23:02:41;;;;;;;33.95;25.10;;;;;;;18.57;65.80;99652.47;10395919;28;20059;-64
2021/09/15 23:07:43;;;;;;;43.47;29.05;;;;;;;18.56;65.99;99649.97;10395229;28;20382;-65
2021/09/15 23:12:45;;;;;;;41.50;27.00;;;;;;;18.49;65.97;99639.13;10396190;28;20054;-64
2021/09/15 23:17:47;;;;;;;32.88;24.15;;;;;;;18.50;65.68;99642.63;10395290;28;20053;-64